Baraka — ZGAE5 — position and weather

sailwx.info

Track history (hours):
 
Tides and Currents Weather Stations Pressure Air Temp Water Temp Dewpoint Dewpoint Depression Visibility Wind Speed Wind Dir Waves Ship Positions

Baraka

Last reported at 2017-Jul-20 09:44 UTC. Time now 2017-Jul-28 00:53 UTC.
Position N 41°01' E 009°34'.

Length 59 m; draft 3.3 m.

Type: Other ship. MMSI: 319015300.

Date/timePositionNaut miles runAvg speedWind from/ knotsBaromVisibWave heightAir tempDewpointWater temp
2017-Jul-20 09:44N 41°01' E 009°34'111 5.8
2017-Jul-19 14:27N 42°28' E 011°07'2 3.8
2017-Jul-19 13:59N 42°26' E 011°07'0 0.0
2017-Jul-19 13:29N 42°26' E 011°07'0 0.0
2017-Jul-19 12:59N 42°26' E 011°07'0 0.0
2017-Jul-19 12:29N 42°26' E 011°07'0 0.0
2017-Jul-19 11:59N 42°26' E 011°07'0 0.0
2017-Jul-19 11:29N 42°26' E 011°07'0 0.0
2017-Jul-19 10:59N 42°26' E 011°07'0 0.0
2017-Jul-19 10:29N 42°26' E 011°07'0 0.0
2017-Jul-19 09:59N 42°26' E 011°07'0 0.0
2017-Jul-19 09:29N 42°26' E 011°07'0 0.0
2017-Jul-19 08:59N 42°26' E 011°07'0 0.0
2017-Jul-19 08:29N 42°26' E 011°07'0 0.0
2017-Jul-19 07:59N 42°26' E 011°07'0 0.0
2017-Jul-19 07:29N 42°26' E 011°07'1 0.9
2017-Jul-19 06:26N 42°27' E 011°08'0 0.0
2017-Jul-19 06:00N 42°27' E 011°08'0 0.0
2017-Jul-19 05:30N 42°27' E 011°08'0 0.0
2017-Jul-19 04:59N 42°27' E 011°08'0 0.0
2017-Jul-19 04:30N 42°27' E 011°08'0 0.5
2017-Jul-19 04:00N 42°27' E 011°08'3 6.0
2017-Jul-19 03:27N 42°25' E 011°04'410.0
2017-Jul-19 03:00N 42°21' E 011°06'16711.8
2017-Jul-18 12:48N 40°39' E 014°03'412.0
2017-Jul-18 12:30N 40°42' E 014°07'611.7
2017-Jul-18 12:00N 40°46' E 014°12'4 7.4
2017-Jul-18 11:30N 40°49' E 014°14'0 0.1
2017-Jul-18 11:00N 40°49' E 014°14'0 0.1
2017-Jul-18 10:25N 40°49' E 014°14'0 0.0
2017-Jul-18 09:46N 40°49' E 014°14'0 0.0
2017-Jul-18 09:28N 40°49' E 014°14'0 0.1
2017-Jul-18 08:58N 40°49' E 014°14'0 0.0
2017-Jul-18 08:16N 40°49' E 014°14'0 0.0
2017-Jul-18 07:46N 40°49' E 014°14'0 0.0
2017-Jul-18 07:19N 40°49' E 014°14'0 0.0
2017-Jul-18 06:58N 40°49' E 014°14'0 0.0
2017-Jul-18 06:19N 40°49' E 014°14'0 0.0
2017-Jul-17 20:25N 40°49' E 014°14'0 0.0
2017-Jul-17 19:43N 40°49' E 014°14'0 0.1
2017-Jul-17 19:25N 40°49' E 014°14'0 0.0
2017-Jul-17 08:58N 40°49' E 014°14'0 0.0
2017-Jul-17 06:01N 40°49' E 014°14'0 0.0
2017-Jul-16 18:52N 40°49' E 014°14'0 0.0
2017-Jul-16 18:22N 40°49' E 014°14'0 0.1
2017-Jul-16 17:58N 40°49' E 014°14'0 0.0
2017-Jul-16 14:43N 40°49' E 014°14'0 0.0
2017-Jul-16 14:13N 40°49' E 014°14'0 0.0
2017-Jul-16 11:04N 40°49' E 014°14'0 0.1
2017-Jul-16 10:34N 40°49' E 014°14'12 0.7
2017-Jul-15 16:52N 40°40' E 014°24'2 5.9
2017-Jul-15 16:31N 40°40' E 014°22'611.9
2017-Jul-15 16:00N 40°40' E 014°14'1012.3
2017-Jul-15 15:10N 40°41' E 014°00'  
2017-Jul-13 08:49N 40°37' E 014°18'411.2
2017-Jul-13 08:30N 40°41' E 014°18'5 0.4
2017-Jul-12 19:54N 40°40' E 014°25'0 0.0
2017-Jul-12 19:30N 40°40' E 014°25'0 0.2
2017-Jul-12 17:23N 40°40' E 014°24'2 6.4
2017-Jul-12 17:00N 40°39' E 014°21'8 0.5
2017-Jul-11 22:53N 40°32' E 014°15'8 0.9
2017-Jul-11 14:17N 40°34' E 014°25'2 0.4
2017-Jul-11 09:52N 40°34' E 014°27'  
Track history (hours):
 
Tides and Currents Weather Stations Pressure Air Temp Water Temp Dewpoint Dewpoint Depression Visibility Wind Speed Wind Dir Waves Ship Positions

Baraka

Last reported at 2017-Jul-20 09:44 UTC. Time now 2017-Jul-28 00:53 UTC.
Position N 41°01' E 009°34'.

Length 59 m; draft 3.3 m.

Type: Other ship. MMSI: 319015300.

Date/timePositionNaut miles runAvg speedWind from/ knotsBaromVisibWave heightAir tempDewpointWater temp
2017-Jul-20 09:44N 41°01' E 009°34'111 5.8
2017-Jul-19 14:27N 42°28' E 011°07'2 3.8
2017-Jul-19 13:59N 42°26' E 011°07'0 0.0
2017-Jul-19 13:29N 42°26' E 011°07'0 0.0
2017-Jul-19 12:59N 42°26' E 011°07'0 0.0
2017-Jul-19 12:29N 42°26' E 011°07'0 0.0
2017-Jul-19 11:59N 42°26' E 011°07'0 0.0
2017-Jul-19 11:29N 42°26' E 011°07'0 0.0
2017-Jul-19 10:59N 42°26' E 011°07'0 0.0
2017-Jul-19 10:29N 42°26' E 011°07'0 0.0
2017-Jul-19 09:59N 42°26' E 011°07'0 0.0
2017-Jul-19 09:29N 42°26' E 011°07'0 0.0
2017-Jul-19 08:59N 42°26' E 011°07'0 0.0
2017-Jul-19 08:29N 42°26' E 011°07'0 0.0
2017-Jul-19 07:59N 42°26' E 011°07'0 0.0
2017-Jul-19 07:29N 42°26' E 011°07'1 0.9
2017-Jul-19 06:26N 42°27' E 011°08'0 0.0
2017-Jul-19 06:00N 42°27' E 011°08'0 0.0
2017-Jul-19 05:30N 42°27' E 011°08'0 0.0
2017-Jul-19 04:59N 42°27' E 011°08'0 0.0
2017-Jul-19 04:30N 42°27' E 011°08'0 0.5
2017-Jul-19 04:00N 42°27' E 011°08'3 6.0
2017-Jul-19 03:27N 42°25' E 011°04'410.0
2017-Jul-19 03:00N 42°21' E 011°06'16711.8
2017-Jul-18 12:48N 40°39' E 014°03'412.0
2017-Jul-18 12:30N 40°42' E 014°07'611.7
2017-Jul-18 12:00N 40°46' E 014°12'4 7.4
2017-Jul-18 11:30N 40°49' E 014°14'0 0.1
2017-Jul-18 11:00N 40°49' E 014°14'0 0.1
2017-Jul-18 10:25N 40°49' E 014°14'0 0.0
2017-Jul-18 09:46N 40°49' E 014°14'0 0.0
2017-Jul-18 09:28N 40°49' E 014°14'0 0.1
2017-Jul-18 08:58N 40°49' E 014°14'0 0.0
2017-Jul-18 08:16N 40°49' E 014°14'0 0.0
2017-Jul-18 07:46N 40°49' E 014°14'0 0.0
2017-Jul-18 07:19N 40°49' E 014°14'0 0.0
2017-Jul-18 06:58N 40°49' E 014°14'0 0.0
2017-Jul-18 06:19N 40°49' E 014°14'0 0.0
2017-Jul-17 20:25N 40°49' E 014°14'0 0.0
2017-Jul-17 19:43N 40°49' E 014°14'0 0.1
2017-Jul-17 19:25N 40°49' E 014°14'0 0.0
2017-Jul-17 08:58N 40°49' E 014°14'0 0.0
2017-Jul-17 06:01N 40°49' E 014°14'0 0.0
2017-Jul-16 18:52N 40°49' E 014°14'0 0.0
2017-Jul-16 18:22N 40°49' E 014°14'0 0.1
2017-Jul-16 17:58N 40°49' E 014°14'0 0.0
2017-Jul-16 14:43N 40°49' E 014°14'0 0.0
2017-Jul-16 14:13N 40°49' E 014°14'0 0.0
2017-Jul-16 11:04N 40°49' E 014°14'0 0.1
2017-Jul-16 10:34N 40°49' E 014°14'12 0.7
2017-Jul-15 16:52N 40°40' E 014°24'2 5.9
2017-Jul-15 16:31N 40°40' E 014°22'611.9
2017-Jul-15 16:00N 40°40' E 014°14'1012.3
2017-Jul-15 15:10N 40°41' E 014°00'  
2017-Jul-13 08:49N 40°37' E 014°18'411.2
2017-Jul-13 08:30N 40°41' E 014°18'5 0.4
2017-Jul-12 19:54N 40°40' E 014°25'0 0.0
2017-Jul-12 19:30N 40°40' E 014°25'0 0.2
2017-Jul-12 17:23N 40°40' E 014°24'2 6.4
2017-Jul-12 17:00N 40°39' E 014°21'8 0.5
2017-Jul-11 22:53N 40°32' E 014°15'8 0.9
2017-Jul-11 14:17N 40°34' E 014°25'2 0.4
2017-Jul-11 09:52N 40°34' E 014°27'  

Dump ship's entire track history